sensor_id;sensor_type;location;lat;lon;timestamp;pressure;altitude;pressure_sealevel;temperature;humidity
26697;BME280;14312;52.614;13.496;2022-11-20T00:02:11;100498.38;;;3.72;66.96
26697;BME280;14312;52.614;13.496;2022-11-20T00:04:57;100494.75;;;3.73;67.08
26697;BME280;14312;52.614;13.496;2022-11-20T00:07:43;100499.19;;;3.72;67.05
26697;BME280;14312;52.614;13.496;2022-11-20T00:10:32;100501.03;;;3.72;67.01
26697;BME280;14312;52.614;13.496;2022-11-20T00:13:18;100502.03;;;3.71;66.94
26697;BME280;14312;52.614;13.496;2022-11-20T00:16:07;100502.84;;;3.71;66.96
26697;BME280;14312;52.614;13.496;2022-11-20T00:18:59;100500.41;;;3.70;66.91
26697;BME280;14312;52.614;13.496;2022-11-20T00:21:45;100499.81;;;3.68;66.91
26697;BME280;14312;52.614;13.496;2022-11-20T00:24:31;100499.19;;;3.66;67.21
26697;BME280;14312;52.614;13.496;2022-11-20T00:27:16;100499.19;;;3.66;66.99
26697;BME280;14312;52.614;13.496;2022-11-20T00:30:04;100495.94;;;3.64;66.88
26697;BME280;14312;52.614;13.496;2022-11-20T00:32:50;100500.38;;;3.63;67.13
26697;BME280;14312;52.614;13.496;2022-11-20T00:35:36;100506.47;;;3.64;67.16
26697;BME280;14312;52.614;13.496;2022-11-20T00:38:21;100499.56;;;3.63;67.18
26697;BME280;14312;52.614;13.496;2022-11-20T00:41:09;100503.22;;;3.62;67.19
26697;BME280;14312;52.614;13.496;2022-11-20T00:43:55;100503.22;;;3.62;66.92
26697;BME280;14312;52.614;13.496;2022-11-20T00:46:41;100507.69;;;3.61;66.98
26697;BME280;14312;52.614;13.496;2022-11-20T00:49:28;100497.53;;;3.58;67.04
26697;BME280;14312;52.614;13.496;2022-11-20T00:52:13;100498.72;;;3.55;66.96
26697;BME280;14312;52.614;13.496;2022-11-20T00:54:59;100501.38;;;3.55;66.87
26697;BME280;14312;52.614;13.496;2022-11-20T00:57:45;100501.78;;;3.52;66.84
26697;BME280;14312;52.614;13.496;2022-11-20T01:00:31;100502.16;;;3.49;66.88
26697;BME280;14312;52.614;13.496;2022-11-20T01:03:17;100505.19;;;3.46;66.98
26697;BME280;14312;52.614;13.496;2022-11-20T01:06:07;100501.94;;;3.44;66.94
26697;BME280;14312;52.614;13.496;2022-11-20T01:08:55;100500.31;;;3.43;67.08
26697;BME280;14312;52.614;13.496;2022-11-20T01:11:43;100498.09;;;3.40;66.96
26697;BME280;14312;52.614;13.496;2022-11-20T01:14:29;100500.72;;;3.40;66.89
26697;BME280;14312;52.614;13.496;2022-11-20T01:17:15;100488.56;;;3.39;66.93
26697;BME280;14312;52.614;13.496;2022-11-20T01:20:00;100491.78;;;3.41;66.98
26697;BME280;14312;52.614;13.496;2022-11-20T01:22:46;100502.31;;;3.41;67.01
26697;BME280;14312;52.614;13.496;2022-11-20T01:25:34;100494.63;;;3.40;67.08
26697;BME280;14312;52.614;13.496;2022-11-20T01:28:19;100487.56;;;3.40;67.06
26697;BME280;14312;52.614;13.496;2022-11-20T01:31:13;100486.53;;;3.41;67.10
26697;BME280;14312;52.614;13.496;2022-11-20T01:34:07;100488.16;;;3.42;66.90
26697;BME280;14312;52.614;13.496;2022-11-20T01:36:54;100488.16;;;3.42;67.02
26697;BME280;14312;52.614;13.496;2022-11-20T01:39:40;100488.16;;;3.42;67.05
26697;BME280;14312;52.614;13.496;2022-11-20T01:42:26;100480.06;;;3.44;67.01
26697;BME280;14312;52.614;13.496;2022-11-20T01:46:16;100480.88;;;3.44;66.95
26697;BME280;14312;52.614;13.496;2022-11-20T01:49:04;100475.97;;;3.41;66.92
26697;BME280;14312;52.614;13.496;2022-11-20T01:52:03;100477.84;;;3.41;67.05
26697;BME280;14312;52.614;13.496;2022-11-20T01:55:17;100469.13;;;3.40;66.93
26697;BME280;14312;52.614;13.496;2022-11-20T01:58:01;100472.75;;;3.39;66.97
26697;BME280;14312;52.614;13.496;2022-11-20T02:00:48;100476.78;;;3.42;66.97
26697;BME280;14312;52.614;13.496;2022-11-20T02:03:34;100465.44;;;3.41;67.03
26697;BME280;14312;52.614;13.496;2022-11-20T02:06:27;100470.72;;;3.41;66.99
26697;BME280;14312;52.614;13.496;2022-11-20T02:09:15;100468.72;;;3.43;67.19
26697;BME280;14312;52.614;13.496;2022-11-20T02:12:01;100467.69;;;3.44;66.97
26697;BME280;14312;52.614;13.496;2022-11-20T02:14:48;100469.53;;;3.44;66.73
26697;BME280;14312;52.614;13.496;2022-11-20T02:17:34;100462.25;;;3.46;66.88
26697;BME280;14312;52.614;13.496;2022-11-20T02:20:20;100460.44;;;3.46;67.06
26697;BME280;14312;52.614;13.496;2022-11-20T02:23:19;100457.78;;;3.46;66.89
26697;BME280;14312;52.614;13.496;2022-11-20T02:26:11;100461.84;;;3.49;66.94
26697;BME280;14312;52.614;13.496;2022-11-20T02:29:00;100466.09;;;3.50;66.86
26697;BME280;14312;52.614;13.496;2022-11-20T02:31:50;100462.66;;;3.49;66.92
26697;BME280;14312;52.614;13.496;2022-11-20T02:34:35;100458.00;;;3.51;66.71
26697;BME280;14312;52.614;13.496;2022-11-20T02:37:22;100466.72;;;3.52;67.10
26697;BME280;14312;52.614;13.496;2022-11-20T02:40:09;100466.91;;;3.50;66.91
26697;BME280;14312;52.614;13.496;2022-11-20T02:42:55;100461.44;;;3.52;66.73
26697;BME280;14312;52.614;13.496;2022-11-20T02:45:42;100458.00;;;3.51;66.62
26697;BME280;14312;52.614;13.496;2022-11-20T02:48:27;100457.00;;;3.52;66.82
26697;BME280;14312;52.614;13.496;2022-11-20T02:51:13;100458.00;;;3.51;66.60
26697;BME280;14312;52.614;13.496;2022-11-20T02:53:59;100450.09;;;3.51;66.90
26697;BME280;14312;52.614;13.496;2022-11-20T02:56:45;100442.19;;;3.51;66.55
26697;BME280;14312;52.614;13.496;2022-11-20T02:59:31;100452.13;;;3.49;66.72
26697;BME280;14312;52.614;13.496;2022-11-20T03:02:17;100450.47;;;3.48;66.62
26697;BME280;14312;52.614;13.496;2022-11-20T03:05:02;100460.25;;;3.48;66.74
26697;BME280;14312;52.614;13.496;2022-11-20T03:07:48;100458.59;;;3.47;66.81
26697;BME280;14312;52.614;13.496;2022-11-20T03:10:34;100458.38;;;3.48;66.57
26697;BME280;14312;52.614;13.496;2022-11-20T03:13:20;100458.59;;;3.47;66.75
26697;BME280;14312;52.614;13.496;2022-11-20T03:16:14;100447.25;;;3.46;66.41
26697;BME280;14312;52.614;13.496;2022-11-20T03:19:00;100450.91;;;3.45;66.53
26697;BME280;14312;52.614;13.496;2022-11-20T03:21:46;100444.19;;;3.43;66.43
26697;BME280;14312;52.614;13.496;2022-11-20T03:24:31;100438.13;;;3.42;66.61
26697;BME280;14312;52.614;13.496;2022-11-20T03:27:17;100443.59;;;3.41;66.65
26697;BME280;14312;52.614;13.496;2022-11-20T03:30:03;100440.97;;;3.41;66.77
26697;BME280;14312;52.614;13.496;2022-11-20T03:32:53;100448.88;;;3.41;66.61
26697;BME280;14312;52.614;13.496;2022-11-20T03:35:39;100442.78;;;3.40;66.66
26697;BME280;14312;52.614;13.496;2022-11-20T03:38:25;100442.78;;;3.40;66.73
26697;BME280;14312;52.614;13.496;2022-11-20T03:41:13;100441.16;;;3.39;66.62
26697;BME280;14312;52.614;13.496;2022-11-20T03:44:02;100427.00;;;3.40;66.53
26697;BME280;14312;52.614;13.496;2022-11-20T03:46:48;100425.34;;;3.39;66.56
26697;BME280;14312;52.614;13.496;2022-11-20T03:49:34;100429.00;;;3.38;66.48
26697;BME280;14312;52.614;13.496;2022-11-20T03:52:20;100420.09;;;3.39;66.51
26697;BME280;14312;52.614;13.496;2022-11-20T03:55:06;100421.09;;;3.38;66.47
26697;BME280;14312;52.614;13.496;2022-11-20T03:57:52;100414.81;;;3.39;66.53
26697;BME280;14312;52.614;13.496;2022-11-20T04:00:38;100415.81;;;3.38;66.42
26697;BME280;14312;52.614;13.496;2022-11-20T04:03:26;100418.47;;;3.38;66.46
26697;BME280;14312;52.614;13.496;2022-11-20T04:06:18;100429.81;;;3.39;66.45
26697;BME280;14312;52.614;13.496;2022-11-20T04:09:05;100430.63;;;3.39;66.56
26697;BME280;14312;52.614;13.496;2022-11-20T04:11:51;100418.47;;;3.38;66.50
26697;BME280;14312;52.614;13.496;2022-11-20T04:14:37;100418.47;;;3.38;66.58
26697;BME280;14312;52.614;13.496;2022-11-20T04:17:22;100413.81;;;3.40;66.50
26697;BME280;14312;52.614;13.496;2022-11-20T04:20:08;100420.69;;;3.41;66.52
26697;BME280;14312;52.614;13.496;2022-11-20T04:22:56;100421.72;;;3.40;66.62
26697;BME280;14312;52.614;13.496;2022-11-20T04:25:42;100419.69;;;3.42;66.47
26697;BME280;14312;52.614;13.496;2022-11-20T04:28:27;100421.31;;;3.43;66.48
26697;BME280;14312;52.614;13.496;2022-11-20T04:31:23;100419.69;;;3.42;66.34
26697;BME280;14312;52.614;13.496;2022-11-20T04:34:11;100422.31;;;3.42;66.55
26697;BME280;14312;52.614;13.496;2022-11-20T04:36:58;100419.91;;;3.41;66.59
26697;BME280;14312;52.614;13.496;2022-11-20T04:39:43;100416.84;;;3.44;66.35
26697;BME280;14312;52.614;13.496;2022-11-20T04:42:29;100414.41;;;3.42;66.32
26697;BME280;14312;52.614;13.496;2022-11-20T04:45:15;100416.03;;;3.43;66.46
26697;BME280;14312;52.614;13.496;2022-11-20T04:48:01;100412.78;;;3.41;66.45
26697;BME280;14312;52.614;13.496;2022-11-20T04:50:51;100418.06;;;3.41;66.46
26697;BME280;14312;52.614;13.496;2022-11-20T04:53:37;100420.69;;;3.41;66.57
26697;BME280;14312;52.614;13.496;2022-11-20T04:56:23;100418.06;;;3.41;66.57
26697;BME280;14312;52.614;13.496;2022-11-20T04:59:09;100416.44;;;3.40;66.48
26697;BME280;14312;52.614;13.496;2022-11-20T05:01:55;100408.56;;;3.40;66.55
26697;BME280;14312;52.614;13.496;2022-11-20T05:04:40;100407.50;;;3.41;66.49
26697;BME280;14312;52.614;13.496;2022-11-20T05:07:27;100411.19;;;3.40;66.40
26697;BME280;14312;52.614;13.496;2022-11-20T05:10:13;100396.41;;;3.39;66.42
26697;BME280;14312;52.614;13.496;2022-11-20T05:12:59;100396.59;;;3.38;66.17
26697;BME280;14312;52.614;13.496;2022-11-20T05:15:45;100401.03;;;3.37;66.43
26697;BME280;14312;52.614;13.496;2022-11-20T05:18:33;100392.50;;;3.35;66.20
26697;BME280;14312;52.614;13.496;2022-11-20T05:21:20;100395.16;;;3.35;66.49
26697;BME280;14312;52.614;13.496;2022-11-20T05:24:06;100392.75;;;3.34;66.23
26697;BME280;14312;52.614;13.496;2022-11-20T05:26:52;100390.28;;;3.32;66.38
26697;BME280;14312;52.614;13.496;2022-11-20T05:29:39;100386.84;;;3.32;66.20
26697;BME280;14312;52.614;13.496;2022-11-20T05:32:25;100389.69;;;3.30;66.48
26697;BME280;14312;52.614;13.496;2022-11-20T13:00:06;100215.41;;;3.99;77.21
26697;BME280;14312;52.614;13.496;2022-11-20T13:08:55;100217.69;;;6.02;71.51
26697;BME280;14312;52.614;13.496;2022-11-20T13:18:09;100208.03;;;6.26;66.46
26697;BME280;14312;52.614;13.496;2022-11-20T13:20:56;100201.47;;;6.17;66.41
26697;BME280;14312;52.614;13.496;2022-11-20T13:23:42;100202.19;;;6.06;66.25
26697;BME280;14312;52.614;13.496;2022-11-20T13:26:29;100195.00;;;5.95;66.55
26697;BME280;14312;52.614;13.496;2022-11-20T13:29:18;100198.72;;;5.87;66.60
26697;BME280;14312;52.614;13.496;2022-11-20T13:32:25;100196.13;;;5.80;66.60
26697;BME280;14312;52.614;13.496;2022-11-20T13:35:11;100197.22;;;5.73;66.19
26697;BME280;14312;52.614;13.496;2022-11-20T13:38:07;100194.66;;;5.66;66.10
26697;BME280;14312;52.614;13.496;2022-11-20T13:40:59;100185.97;;;5.59;65.95
26697;BME280;14312;52.614;13.496;2022-11-20T13:44:13;100202.91;;;5.51;65.83
26697;BME280;14312;52.614;13.496;2022-11-20T13:46:59;100200.75;;;5.42;65.92
26697;BME280;14312;52.614;13.496;2022-11-20T13:49:45;100200.00;;;5.35;66.19
26697;BME280;14312;52.614;13.496;2022-11-20T13:55:54;100195.28;;;5.19;65.98
26697;BME280;14312;52.614;13.496;2022-11-20T14:01:39;100192.56;;;5.00;66.04
26697;BME280;14312;52.614;13.496;2022-11-20T14:04:33;100191.81;;;4.93;65.71
26697;BME280;14312;52.614;13.496;2022-11-20T14:07:24;100199.97;;;4.85;66.26
26697;BME280;14312;52.614;13.496;2022-11-20T14:10:23;100207.72;;;4.80;66.02
26697;BME280;14312;52.614;13.496;2022-11-20T14:13:16;100204.94;;;4.75;66.44
26697;BME280;14312;52.614;13.496;2022-11-20T14:16:03;100202.91;;;4.70;66.36
26697;BME280;14312;52.614;13.496;2022-11-20T14:18:49;100200.91;;;4.66;66.67
26697;BME280;14312;52.614;13.496;2022-11-20T14:21:35;100200.75;;;4.61;66.43
26697;BME280;14312;52.614;13.496;2022-11-20T14:24:23;100197.91;;;4.56;66.70
26697;BME280;14312;52.614;13.496;2022-11-20T14:27:18;100198.34;;;4.53;66.63
26697;BME280;14312;52.614;13.496;2022-11-20T14:30:06;100201.41;;;4.50;66.66
26697;BME280;14312;52.614;13.496;2022-11-20T14:33:02;100196.56;;;4.47;66.65
26697;BME280;14312;52.614;13.496;2022-11-20T14:35:51;100196.97;;;4.44;66.56
26697;BME280;14312;52.614;13.496;2022-11-20T14:38:37;100187.66;;;4.41;66.61
26697;BME280;14312;52.614;13.496;2022-11-20T14:41:28;100197.81;;;4.38;66.39
26697;BME280;14312;52.614;13.496;2022-11-20T14:44:14;100191.13;;;4.35;66.55
26697;BME280;14312;52.614;13.496;2022-11-20T14:47:02;100186.06;;;4.33;66.52
26697;BME280;14312;52.614;13.496;2022-11-20T14:49:50;100190.75;;;4.31;66.62
26697;BME280;14312;52.614;13.496;2022-11-20T14:52:36;100188.53;;;4.28;66.53
26697;BME280;14312;52.614;13.496;2022-11-20T14:55:36;100181.63;;;4.27;66.52
26697;BME280;14312;52.614;13.496;2022-11-20T14:58:26;100180.00;;;4.26;66.62
26697;BME280;14312;52.614;13.496;2022-11-20T15:01:12;100166.25;;;4.24;66.69
26697;BME280;14312;52.614;13.496;2022-11-20T15:04:09;100170.91;;;4.22;66.59
26697;BME280;14312;52.614;13.496;2022-11-20T15:06:57;100176.19;;;4.22;66.47
26697;BME280;14312;52.614;13.496;2022-11-20T15:09:44;100172.72;;;4.22;66.54
26697;BME280;14312;52.614;13.496;2022-11-20T15:12:32;100178.22;;;4.20;66.63
26697;BME280;14312;52.614;13.496;2022-11-20T15:15:26;100175.56;;;4.20;66.59
26697;BME280;14312;52.614;13.496;2022-11-20T15:18:21;100169.47;;;4.20;66.79
26697;BME280;14312;52.614;13.496;2022-11-20T15:21:13;100171.31;;;4.19;66.62
26697;BME280;14312;52.614;13.496;2022-11-20T15:23:59;100173.94;;;4.19;66.71
26697;BME280;14312;52.614;13.496;2022-11-20T15:26:46;100167.91;;;4.19;66.67
26697;BME280;14312;52.614;13.496;2022-11-20T15:29:33;100167.66;;;4.20;66.73
26697;BME280;14312;52.614;13.496;2022-11-20T15:32:23;100173.94;;;4.19;66.59
26697;BME280;14312;52.614;13.496;2022-11-20T15:35:09;100166.47;;;4.16;66.74
26697;BME280;14312;52.614;13.496;2022-11-20T15:37:55;100162.00;;;4.17;66.61
26697;BME280;14312;52.614;13.496;2022-11-20T15:40:41;100163.03;;;4.16;66.57
26697;BME280;14312;52.614;13.496;2022-11-20T15:43:27;100165.88;;;4.14;66.58
26697;BME280;14312;52.614;13.496;2022-11-20T15:46:16;100156.34;;;4.13;66.37
26697;BME280;14312;52.614;13.496;2022-11-20T15:49:11;100157.34;;;4.12;66.61
26697;BME280;14312;52.614;13.496;2022-11-20T15:51:57;100154.50;;;4.14;66.47
26697;BME280;14312;52.614;13.496;2022-11-20T15:54:43;100146.81;;;4.12;66.44
26697;BME280;14312;52.614;13.496;2022-11-20T15:57:29;100151.06;;;4.13;66.47
26697;BME280;14312;52.614;13.496;2022-11-20T16:00:15;100153.13;;;4.11;66.59
26697;BME280;14312;52.614;13.496;2022-11-20T16:03:01;100154.13;;;4.10;66.51
26697;BME280;14312;52.614;13.496;2022-11-20T16:05:47;100152.06;;;4.12;66.62
26697;BME280;14312;52.614;13.496;2022-11-20T16:08:33;100146.03;;;4.12;66.59
26697;BME280;14312;52.614;13.496;2022-11-20T16:11:22;100145.78;;;4.13;66.05
26697;BME280;14312;52.614;13.496;2022-11-20T16:14:13;100146.03;;;4.12;66.30
26697;BME280;14312;52.614;13.496;2022-11-20T16:17:17;100139.31;;;4.09;66.20
26697;BME280;14312;52.614;13.496;2022-11-20T16:20:23;100140.53;;;4.07;66.10
26697;BME280;14312;52.614;13.496;2022-11-20T16:23:09;100142.00;;;4.03;66.13
26697;BME280;14312;52.614;13.496;2022-11-20T16:25:55;100141.59;;;3.99;65.96
26697;BME280;14312;52.614;13.496;2022-11-20T16:28:41;100140.81;;;3.92;65.77
26697;BME280;14312;52.614;13.496;2022-11-20T16:31:26;100144.88;;;3.88;65.86
26697;BME280;14312;52.614;13.496;2022-11-20T16:34:15;100155.25;;;3.83;65.80
26697;BME280;14312;52.614;13.496;2022-11-20T16:37:04;100161.94;;;3.79;66.03
26697;BME280;14312;52.614;13.496;2022-11-20T16:39:50;100160.94;;;3.73;66.04
26697;BME280;14312;52.614;13.496;2022-11-20T16:42:36;100156.31;;;3.69;65.94
26697;BME280;14312;52.614;13.496;2022-11-20T16:45:23;100165.63;;;3.65;66.08
26697;BME280;14312;52.614;13.496;2022-11-20T16:48:12;100150.25;;;3.62;66.11
26697;BME280;14312;52.614;13.496;2022-11-20T16:51:03;100153.88;;;3.61;66.42
26697;BME280;14312;52.614;13.496;2022-11-20T16:53:49;100155.91;;;3.59;66.30
26697;BME280;14312;52.614;13.496;2022-11-20T16:56:35;100155.31;;;3.57;66.37
26697;BME280;14312;52.614;13.496;2022-11-20T16:59:21;100161.38;;;3.57;66.44
26697;BME280;14312;52.614;13.496;2022-11-20T17:02:09;100159.56;;;3.58;66.38
26697;BME280;14312;52.614;13.496;2022-11-20T17:04:55;100161.19;;;3.59;66.51
26697;BME280;14312;52.614;13.496;2022-11-20T17:07:40;100164.63;;;3.59;66.34
26697;BME280;14312;52.614;13.496;2022-11-20T17:10:26;100160.78;;;3.62;66.62
26697;BME280;14312;52.614;13.496;2022-11-20T17:13:12;100157.09;;;3.63;66.43
26697;BME280;14312;52.614;13.496;2022-11-20T17:16:09;100160.16;;;3.66;66.35
26697;BME280;14312;52.614;13.496;2022-11-20T17:18:56;100158.34;;;3.67;66.40
26697;BME280;14312;52.614;13.496;2022-11-20T17:21:42;100156.31;;;3.69;66.54
26697;BME280;14312;52.614;13.496;2022-11-20T17:24:28;100148.19;;;3.70;66.46
26697;BME280;14312;52.614;13.496;2022-11-20T17:27:14;100164.78;;;3.71;66.46
26697;BME280;14312;52.614;13.496;2022-11-20T17:30:00;100153.25;;;3.72;66.43
26697;BME280;14312;52.614;13.496;2022-11-20T17:32:45;100152.22;;;3.73;66.25
26697;BME280;14312;52.614;13.496;2022-11-20T17:35:35;100135.41;;;3.74;66.16
26697;BME280;14312;52.614;13.496;2022-11-20T17:38:21;100144.94;;;3.75;66.26
26697;BME280;14312;52.614;13.496;2022-11-20T17:41:13;100154.88;;;3.73;66.23
26697;BME280;14312;52.614;13.496;2022-11-20T17:44:01;100144.72;;;3.76;65.86
26697;BME280;14312;52.614;13.496;2022-11-20T17:46:47;100150.78;;;3.77;66.35
26697;BME280;14312;52.614;13.496;2022-11-20T17:49:33;100149.78;;;3.78;66.02
26697;BME280;14312;52.614;13.496;2022-11-20T17:52:19;100150.59;;;3.78;66.13
26697;BME280;14312;52.614;13.496;2022-11-20T17:55:05;100140.66;;;3.80;66.26
26697;BME280;14312;52.614;13.496;2022-11-20T17:57:51;100153.63;;;3.82;66.15
26697;BME280;14312;52.614;13.496;2022-11-20T18:00:37;100146.53;;;3.82;66.30
26697;BME280;14312;52.614;13.496;2022-11-20T18:03:23;100155.84;;;3.85;66.05
26697;BME280;14312;52.614;13.496;2022-11-20T18:06:10;100146.09;;;3.85;66.04
26697;BME280;14312;52.614;13.496;2022-11-20T18:08:57;100136.38;;;3.86;66.04
26697;BME280;14312;52.614;13.496;2022-11-20T18:11:48;100135.16;;;3.88;65.86
26697;BME280;14312;52.614;13.496;2022-11-20T18:14:34;100134.16;;;3.89;66.09
26697;BME280;14312;52.614;13.496;2022-11-20T18:17:23;100123.38;;;3.91;66.01
26697;BME280;14312;52.614;13.496;2022-11-20T18:20:10;100118.09;;;3.91;66.05
26697;BME280;14312;52.614;13.496;2022-11-20T18:22:56;100118.09;;;3.91;65.83
26697;BME280;14312;52.614;13.496;2022-11-20T18:25:42;100117.69;;;3.94;65.69
26697;BME280;14312;52.614;13.496;2022-11-20T18:28:29;100106.34;;;3.93;66.01
26697;BME280;14312;52.614;13.496;2022-11-20T18:31:15;100112.44;;;3.94;65.81
26697;BME280;14312;52.614;13.496;2022-11-20T18:34:01;100107.16;;;3.94;65.62
26697;BME280;14312;52.614;13.496;2022-11-20T18:36:46;100105.34;;;3.94;65.88
26697;BME280;14312;52.614;13.496;2022-11-20T18:39:32;100101.88;;;3.94;65.85
26697;BME280;14312;52.614;13.496;2022-11-20T18:42:18;100103.50;;;3.95;65.93
26697;BME280;14312;52.614;13.496;2022-11-20T18:45:23;100108.78;;;3.95;65.66
26697;BME280;14312;52.614;13.496;2022-11-20T18:48:09;100106.94;;;3.96;65.74
26697;BME280;14312;52.614;13.496;2022-11-20T18:50:54;100106.75;;;3.97;65.56
26697;BME280;14312;52.614;13.496;2022-11-20T18:53:48;100110.41;;;3.96;65.68
26697;BME280;14312;52.614;13.496;2022-11-20T18:56:34;100118.09;;;3.98;65.58
26697;BME280;14312;52.614;13.496;2022-11-20T18:59:20;100106.75;;;3.97;65.57
26697;BME280;14312;52.614;13.496;2022-11-20T19:02:09;100105.13;;;3.96;65.77
26697;BME280;14312;52.614;13.496;2022-11-20T19:04:55;100105.13;;;3.96;65.60
26697;BME280;14312;52.614;13.496;2022-11-20T19:07:41;100107.75;;;3.96;65.75
26697;BME280;14312;52.614;13.496;2022-11-20T19:10:27;100101.47;;;3.97;65.67
26697;BME280;14312;52.614;13.496;2022-11-20T19:13:18;100110.41;;;3.96;65.41
26697;BME280;14312;52.614;13.496;2022-11-20T19:16:06;100107.16;;;3.94;65.57
26697;BME280;14312;52.614;13.496;2022-11-20T19:18:52;100111.22;;;3.97;65.46
26697;BME280;14312;52.614;13.496;2022-11-20T19:21:38;100105.13;;;3.96;65.51
26697;BME280;14312;52.614;13.496;2022-11-20T19:24:25;100107.16;;;3.94;65.32
26697;BME280;14312;52.614;13.496;2022-11-20T19:27:14;100117.69;;;3.94;65.29
26697;BME280;14312;52.614;13.496;2022-11-20T19:30:00;100114.47;;;3.92;65.10
26697;BME280;14312;52.614;13.496;2022-11-20T19:32:48;100105.97;;;3.90;65.05
26697;BME280;14312;52.614;13.496;2022-11-20T19:35:35;100111.66;;;3.87;65.28
26697;BME280;14312;52.614;13.496;2022-11-20T19:38:21;100117.31;;;3.84;65.39
26697;BME280;14312;52.614;13.496;2022-11-20T19:41:07;100107.22;;;3.81;65.28
26697;BME280;14312;52.614;13.496;2022-11-20T19:44:09;100116.94;;;3.80;65.40
26697;BME280;14312;52.614;13.496;2022-11-20T19:46:56;100112.88;;;3.78;65.33
26697;BME280;14312;52.614;13.496;2022-11-20T19:49:44;100119.16;;;3.77;65.48
26697;BME280;14312;52.614;13.496;2022-11-20T19:52:30;100109.69;;;3.76;65.35
26697;BME280;14312;52.614;13.496;2022-11-20T19:55:16;100104.41;;;3.76;65.34
26697;BME280;14312;52.614;13.496;2022-11-20T19:58:02;100106.22;;;3.75;65.42
26697;BME280;14312;52.614;13.496;2022-11-20T20:00:48;100109.06;;;3.74;65.36
26697;BME280;14312;52.614;13.496;2022-11-20T20:03:34;100107.66;;;3.71;65.13
26697;BME280;14312;52.614;13.496;2022-11-20T20:06:22;100100.75;;;3.70;65.27
26697;BME280;14312;52.614;13.496;2022-11-20T20:09:11;100101.19;;;3.67;65.38
26697;BME280;14312;52.614;13.496;2022-11-20T20:11:57;100095.50;;;3.64;65.15
26697;BME280;14312;52.614;13.496;2022-11-20T20:14:48;100088.44;;;3.58;65.51
26697;BME280;14312;52.614;13.496;2022-11-20T20:17:35;100088.44;;;3.58;65.41
26697;BME280;14312;52.614;13.496;2022-11-20T20:20:22;100090.91;;;3.52;65.39
26697;BME280;14312;52.614;13.496;2022-11-20T20:23:08;100088.25;;;3.52;65.31
26697;BME280;14312;52.614;13.496;2022-11-20T20:25:54;100084.22;;;3.50;65.08
26697;BME280;14312;52.614;13.496;2022-11-20T20:28:40;100082.00;;;3.47;65.48
26697;BME280;14312;52.614;13.496;2022-11-20T20:31:28;100082.22;;;3.45;65.39
26697;BME280;14312;52.614;13.496;2022-11-20T20:34:14;100084.22;;;3.43;65.33
26697;BME280;14312;52.614;13.496;2022-11-20T20:37:00;100078.34;;;3.41;65.13
26697;BME280;14312;52.614;13.496;2022-11-20T20:39:48;100070.88;;;3.38;65.41
26697;BME280;14312;52.614;13.496;2022-11-20T20:42:35;100067.63;;;3.36;65.34
26697;BME280;14312;52.614;13.496;2022-11-20T20:45:21;100075.34;;;3.31;65.25
26697;BME280;14312;52.614;13.496;2022-11-20T20:48:07;100072.13;;;3.29;65.48
26697;BME280;14312;52.614;13.496;2022-11-20T20:51:00;100076.78;;;3.27;65.57
26697;BME280;14312;52.614;13.496;2022-11-20T20:53:48;100066.47;;;3.26;65.40
26697;BME280;14312;52.614;13.496;2022-11-20T20:56:35;100058.78;;;3.24;65.30
26697;BME280;14312;52.614;13.496;2022-11-20T20:59:21;100060.78;;;3.22;65.32
26697;BME280;14312;52.614;13.496;2022-11-20T21:02:08;100062.03;;;3.20;65.23
26697;BME280;14312;52.614;13.496;2022-11-20T21:04:55;100060.59;;;3.17;65.18
26697;BME280;14312;52.614;13.496;2022-11-20T21:07:41;100053.09;;;3.14;65.32
26697;BME280;14312;52.614;13.496;2022-11-20T21:10:51;100056.38;;;3.09;65.25
26697;BME280;14312;52.614;13.496;2022-11-20T21:13:39;100043.59;;;3.06;65.25
26697;BME280;14312;52.614;13.496;2022-11-20T21:16:25;100045.03;;;3.02;65.34
26697;BME280;14312;52.614;13.496;2022-11-20T21:19:11;100048.31;;;2.98;65.40
26697;BME280;14312;52.614;13.496;2022-11-20T21:21:57;100050.31;;;2.96;65.21
26697;BME280;14312;52.614;13.496;2022-11-20T21:24:49;100038.56;;;2.92;65.40
26697;BME280;14312;52.614;13.496;2022-11-20T21:27:35;100036.38;;;2.89;65.32
26697;BME280;14312;52.614;13.496;2022-11-20T21:30:20;100032.50;;;2.85;65.40
26697;BME280;14312;52.614;13.496;2022-11-20T21:33:06;100027.66;;;2.82;65.39
26697;BME280;14312;52.614;13.496;2022-11-20T21:35:52;100018.56;;;2.78;65.40
26697;BME280;14312;52.614;13.496;2022-11-20T21:38:38;100020.00;;;2.73;65.14
26697;BME280;14312;52.614;13.496;2022-11-20T21:41:27;100027.25;;;2.71;65.35
26697;BME280;14312;52.614;13.496;2022-11-20T21:44:13;100016.56;;;2.66;65.33
26697;BME280;14312;52.614;13.496;2022-11-20T21:46:59;100019.59;;;2.63;65.36
26697;BME280;14312;52.614;13.496;2022-11-20T21:49:45;100015.75;;;2.59;65.26
26697;BME280;14312;52.614;13.496;2022-11-20T21:52:31;100010.31;;;2.54;65.42
26697;BME280;14312;52.614;13.496;2022-11-20T21:55:17;100014.34;;;2.50;65.33
26697;BME280;14312;52.614;13.496;2022-11-20T21:58:03;100011.50;;;2.45;65.26
26697;BME280;14312;52.614;13.496;2022-11-20T22:00:54;100006.63;;;2.42;65.41
26697;BME280;14312;52.614;13.496;2022-11-20T22:03:41;100009.88;;;2.38;65.23
26697;BME280;14312;52.614;13.496;2022-11-20T22:06:31;100004.25;;;2.34;65.58
26697;BME280;14312;52.614;13.496;2022-11-20T22:09:19;99999.38;;;2.31;65.62
26697;BME280;14312;52.614;13.496;2022-11-20T22:12:05;99991.88;;;2.28;65.67
26697;BME280;14312;52.614;13.496;2022-11-20T22:14:51;99980.16;;;2.24;65.65
26697;BME280;14312;52.614;13.496;2022-11-20T22:17:37;99992.69;;;2.22;65.75
26697;BME280;14312;52.614;13.496;2022-11-20T22:20:41;99983.59;;;2.18;65.49
26697;BME280;14312;52.614;13.496;2022-11-20T22:23:27;99982.38;;;2.14;65.64